Time;durP1;ratioP1;P1;durP2;ratioP2;P2;SDS_P1;SDS_P2;PMS_P1;PMS_P2;Temp;Humidity;BMP_temperature;BMP_pressure;BME280_temperature;BME280_humidity;BME280_pressure;Samples;Min_cycle;Max_cycle;Signal;HPM_P1;HPM_P2
2023/01/24 00:02:24;;;;;;;24.23;17.50;;;3.00;99.90;;;;;;6152473;23;20021;-83
2023/01/24 00:04:50;;;;;;;21.58;17.85;;;2.90;99.90;;;;;;6152298;23;20593;-83
2023/01/24 00:07:15;;;;;;;22.65;17.40;;;2.90;99.90;;;;;;6152199;23;20459;-79
2023/01/24 00:09:41;;;;;;;22.60;18.08;;;2.90;99.90;;;;;;6127367;23;20017;-81
2023/01/24 00:12:06;;;;;;;22.30;17.38;;;2.90;99.90;;;;;;6152254;23;20010;-79
2023/01/24 00:14:32;;;;;;;20.85;17.77;;;2.90;99.90;;;;;;6152279;23;20014;-79
2023/01/24 00:16:57;;;;;;;24.77;18.45;;;2.90;99.90;;;;;;6151921;23;20040;-79
2023/01/24 00:19:23;;;;;;;22.13;17.67;;;2.90;99.90;;;;;;6152561;23;20014;-82
2023/01/24 00:21:48;;;;;;;24.83;19.00;;;2.90;99.90;;;;;;6152654;23;20017;-79
2023/01/24 00:24:14;;;;;;;20.63;17.70;;;2.90;99.90;;;;;;6151830;23;20091;-83
2023/01/24 00:26:39;;;;;;;21.50;17.77;;;2.90;99.90;;;;;;6151454;23;20013;-80
2023/01/24 00:29:05;;;;;;;23.23;18.83;;;2.80;99.90;;;;;;6151865;23;20013;-80
2023/01/24 00:31:31;;;;;;;22.63;18.83;;;2.80;99.90;;;;;;6151422;23;20784;-79
2023/01/24 00:33:56;;;;;;;24.83;19.40;;;2.80;99.90;;;;;;6128109;23;20013;-81
2023/01/24 00:36:22;;;;;;;24.08;19.77;;;2.80;99.90;;;;;;6151890;23;20014;-81
2023/01/24 00:38:47;;;;;;;23.27;17.48;;;2.80;99.90;;;;;;6152710;23;20024;-79
2023/01/24 00:41:13;;;;;;;21.33;18.65;;;2.80;99.90;;;;;;6127939;23;20442;-79
2023/01/24 00:43:38;;;;;;;23.75;19.02;;;2.80;99.90;;;;;;6151716;23;20017;-79
2023/01/24 00:46:09;;;;;;;23.23;18.77;;;2.80;99.90;;;;;;6151765;23;20446;-83
2023/01/24 00:48:34;;;;;;;28.50;19.38;;;2.80;99.90;;;;;;6152461;23;20021;-80
2023/01/24 00:51:00;;;;;;;22.52;17.88;;;2.80;99.90;;;;;;6152242;23;20017;-81
2023/01/24 00:53:26;;;;;;;21.55;18.05;;;2.80;99.90;;;;;;6152452;23;20017;-79
2023/01/24 00:55:54;;;;;;;20.15;16.90;;;2.80;99.90;;;;;;6152112;23;20015;-80
2023/01/24 00:58:20;;;;;;;23.75;17.80;;;2.80;99.90;;;;;;6151680;23;20010;-79
2023/01/24 01:00:46;;;;;;;24.20;19.00;;;2.90;99.90;;;;;;6152020;23;20024;-80
2023/01/24 01:03:18;;;;;;;19.90;17.73;;;2.80;99.90;;;;;;6152097;23;20018;-83
2023/01/24 01:05:44;;;;;;;22.30;16.85;;;2.80;99.90;;;;;;6150873;23;20064;-82
2023/01/24 01:08:11;;;;;;;23.08;18.17;;;2.80;99.90;;;;;;6127166;23;20014;-79
2023/01/24 01:10:37;;;;;;;21.88;17.40;;;2.80;99.90;;;;;;6152261;23;20088;-82
2023/01/24 01:13:03;;;;;;;21.27;17.48;;;2.80;99.90;;;;;;6152142;23;20033;-82
2023/01/24 01:15:29;;;;;;;20.02;16.75;;;2.80;99.90;;;;;;6151348;23;20009;-79
2023/01/24 01:17:56;;;;;;;22.60;18.23;;;2.90;99.90;;;;;;6152096;23;20414;-80
2023/01/24 01:20:21;;;;;;;21.02;18.50;;;2.90;99.90;;;;;;6152099;23;20059;-80
2023/01/24 01:22:47;;;;;;;22.48;18.17;;;2.80;99.90;;;;;;6152774;23;20092;-85
2023/01/24 01:25:13;;;;;;;24.38;19.90;;;2.90;99.90;;;;;;6153574;23;20070;-80
2023/01/24 01:27:38;;;;;;;24.38;18.98;;;2.90;99.90;;;;;;6153940;23;20454;-79
2023/01/24 01:30:05;;;;;;;24.65;18.35;;;2.80;99.90;;;;;;6153907;23;20017;-81
2023/01/24 01:32:30;;;;;;;23.45;17.90;;;2.90;99.90;;;;;;6153755;23;20009;-80
2023/01/24 01:34:56;;;;;;;22.35;18.02;;;2.90;99.90;;;;;;6153130;23;20060;-80
2023/01/24 01:37:21;;;;;;;20.65;18.30;;;2.90;99.90;;;;;;6153871;23;20006;-80
2023/01/24 01:39:47;;;;;;;24.27;19.05;;;2.90;99.90;;;;;;6154115;23;20708;-79
2023/01/24 01:42:14;;;;;;;23.80;18.90;;;2.90;99.90;;;;;;6153910;23;20017;-81
2023/01/24 01:44:43;;;;;;;27.83;20.08;;;2.90;99.90;;;;;;6154241;23;20013;-83
2023/01/24 01:47:20;;;;;;;23.60;18.77;;;2.90;99.90;;;;;;6153855;23;20010;-81
2023/01/24 01:49:55;;;;;;;24.75;19.27;;;2.80;99.90;;;;;;6153315;23;20085;-80
2023/01/24 01:52:22;;;;;;;21.65;18.52;;;2.90;99.90;;;;;;6154093;23;20014;-80
2023/01/24 01:54:50;;;;;;;23.90;20.00;;;2.80;99.90;;;;;;6154136;23;20013;-83
2023/01/24 01:57:19;;;;;;;24.70;19.15;;;2.90;99.90;;;;;;6153683;23;20055;-79
2023/01/24 01:59:59;;;;;;;25.80;19.58;;;2.90;99.90;;;;;;6154215;23;20033;-80
2023/01/24 02:02:25;;;;;;;20.83;17.92;;;2.80;99.90;;;;;;6153890;23;20469;-84
2023/01/24 02:04:59;;;;;;;23.38;19.15;;;2.80;99.90;;;;;;6153613;23;20048;-82
2023/01/24 02:07:49;;;;;;;21.95;18.77;;;2.80;99.90;;;;;;6153926;23;20013;-80
2023/01/24 02:10:19;;;;;;;23.77;18.63;;;2.90;99.90;;;;;;6154007;23;20013;-81
2023/01/24 02:12:46;;;;;;;23.15;18.52;;;2.90;99.90;;;;;;6153628;23;20073;-79
2023/01/24 02:18:10;;;;;;;19.27;17.10;;;3.00;99.90;;;;;;6153357;23;20025;-80
2023/01/24 02:20:44;;;;;;;20.65;17.73;;;2.90;99.90;;;;;;6153298;23;20505;-83
2023/01/24 02:23:24;;;;;;;19.63;17.10;;;2.80;99.90;;;;;;6153762;23;20040;-81
2023/01/24 02:26:04;;;;;;;22.33;18.13;;;2.80;99.90;;;;;;6153699;23;20022;-80
2023/01/24 02:28:31;;;;;;;23.40;18.63;;;2.90;99.90;;;;;;6128871;23;20017;-79
2023/01/24 02:30:57;;;;;;;29.27;19.75;;;2.90;99.90;;;;;;6153687;23;20013;-79
2023/01/24 02:33:23;;;;;;;22.70;18.85;;;2.90;99.90;;;;;;6153843;23;20021;-79
2023/01/24 02:35:49;;;;;;;25.80;19.65;;;2.90;99.90;;;;;;6153003;23;20017;-79
2023/01/24 02:38:19;;;;;;;24.38;19.38;;;2.80;99.90;;;;;;6153868;23;20017;-79
2023/01/24 02:40:47;;;;;;;23.75;18.70;;;2.90;99.90;;;;;;6153867;23;20018;-79
2023/01/24 02:43:14;;;;;;;20.92;17.67;;;2.90;99.90;;;;;;6129257;23;20010;-82
2023/01/24 02:45:40;;;;;;;25.30;19.60;;;2.90;99.90;;;;;;6153547;23;20387;-79
2023/01/24 02:48:05;;;;;;;21.40;17.45;;;2.90;99.90;;;;;;6153707;23;20017;-79
2023/01/24 02:53:29;;;;;;;21.17;18.33;;;2.80;99.90;;;;;;6153502;23;20053;-79
2023/01/24 02:53:39;;;;;;;20.23;16.70;;;2.90;99.90;;;;;;6153449;23;20017;-82
2023/01/24 02:58:52;;;;;;;21.33;18.08;;;2.90;99.90;;;;;;6153130;23;20020;-79
2023/01/24 03:01:18;;;;;;;22.10;17.35;;;2.90;99.90;;;;;;6153407;23;20096;-80
2023/01/24 03:03:45;;;;;;;21.90;17.95;;;2.80;99.90;;;;;;6153443;23;20068;-79
2023/01/24 03:06:12;;;;;;;23.33;18.67;;;2.80;99.90;;;;;;6153222;23;20533;-79
2023/01/24 03:08:39;;;;;;;22.88;18.25;;;2.90;99.90;;;;;;6153483;23;20324;-79
2023/01/24 03:11:06;;;;;;;21.50;17.80;;;2.80;99.90;;;;;;6128977;23;20013;-79
2023/01/24 03:35:29;;;;;;;17.42;15.30;;;2.90;99.90;;;;;;6152834;23;20018;-80
2023/01/24 03:40:39;;;;;;;18.45;16.15;;;2.90;99.90;;;;;;6153186;23;20080;-79
2023/01/24 03:43:05;;;;;;;17.20;15.38;;;2.80;99.90;;;;;;6127696;23;20017;-80
2023/01/24 03:45:34;;;;;;;17.02;15.18;;;2.90;99.90;;;;;;6151540;23;20018;-79
2023/01/24 03:48:02;;;;;;;17.90;15.50;;;2.90;99.90;;;;;;6128139;23;20017;-79
2023/01/24 03:53:22;;;;;;;18.35;14.75;;;2.90;99.90;;;;;;6151665;23;20045;-86
2023/01/24 03:55:52;;;;;;;16.90;15.07;;;2.90;99.90;;;;;;6151539;23;20013;-79
2023/01/24 03:58:18;;;;;;;16.00;13.82;;;2.90;99.90;;;;;;6152376;23;20020;-79
2023/01/24 04:00:43;;;;;;;16.80;14.43;;;2.90;99.90;;;;;;6152046;23;20013;-79
2023/01/24 04:03:09;;;;;;;16.63;14.32;;;2.90;99.90;;;;;;6152159;23;20473;-79
2023/01/24 04:05:35;;;;;;;18.55;15.68;;;3.00;99.90;;;;;;6127213;23;20411;-79
2023/01/24 04:08:02;;;;;;;17.85;15.43;;;3.00;99.90;;;;;;6152930;23;20017;-82
2023/01/24 04:10:28;;;;;;;15.88;14.10;;;3.00;99.90;;;;;;6152496;23;20096;-79
2023/01/24 04:12:54;;;;;;;16.50;14.57;;;2.90;99.90;;;;;;6152406;23;20056;-79
2023/01/24 04:15:25;;;;;;;19.02;17.00;;;2.90;99.90;;;;;;6152083;23;20446;-79
2023/01/24 04:17:50;;;;;;;16.15;14.43;;;2.90;99.90;;;;;;6152300;23;20009;-79
2023/01/24 04:20:16;;;;;;;17.67;15.43;;;2.90;99.90;;;;;;6153095;23;20100;-79
2023/01/24 04:22:42;;;;;;;16.92;15.02;;;2.90;99.90;;;;;;6152623;23;20018;-79
2023/01/24 04:25:08;;;;;;;17.13;14.55;;;3.00;99.90;;;;;;6152209;23;20061;-79
2023/01/24 04:27:36;;;;;;;15.98;14.27;;;2.90;99.90;;;;;;6152779;23;20056;-79
2023/01/24 04:30:03;;;;;;;17.13;14.52;;;2.90;99.90;;;;;;6152336;23;20027;-82
2023/01/24 04:32:29;;;;;;;15.35;13.75;;;2.90;99.90;;;;;;6151989;23;20096;-79
2023/01/24 04:34:55;;;;;;;17.25;15.20;;;2.90;99.90;;;;;;6151873;23;20379;-79
2023/01/24 04:37:20;;;;;;;14.60;13.02;;;2.90;99.90;;;;;;6152234;23;20010;-79
2023/01/24 04:39:46;;;;;;;15.68;14.00;;;2.90;99.90;;;;;;6152021;23;20021;-82
2023/01/24 04:42:11;;;;;;;14.27;12.88;;;2.90;99.90;;;;;;6127492;23;20017;-79
2023/01/24 04:44:37;;;;;;;13.52;11.13;;;2.90;99.90;;;;;;6151972;23;20013;-79
2023/01/24 04:47:02;;;;;;;13.30;10.73;;;2.90;99.90;;;;;;6151000;23;20028;-80
2023/01/24 04:49:28;;;;;;;15.27;12.35;;;2.90;99.90;;;;;;6152261;23;20024;-79
2023/01/24 04:51:53;;;;;;;14.20;12.23;;;2.90;99.90;;;;;;6152413;23;20607;-79
2023/01/24 04:54:19;;;;;;;13.70;12.05;;;2.90;99.90;;;;;;6151670;23;20104;-79
2023/01/24 04:56:45;;;;;;;13.60;12.10;;;2.90;99.90;;;;;;6150867;23;20014;-81
2023/01/24 04:59:11;;;;;;;14.52;12.52;;;2.80;99.90;;;;;;6154307;23;20446;-80
2023/01/24 05:01:37;;;;;;;16.75;13.35;;;2.90;99.90;;;;;;6127838;23;20347;-80
2023/01/24 05:04:03;;;;;;;16.02;13.48;;;2.90;99.90;;;;;;6155514;23;20013;-83
2023/01/24 05:06:30;;;;;;;16.83;13.30;;;2.90;99.90;;;;;;6154905;23;20076;-83
2023/01/24 05:08:56;;;;;;;14.50;12.43;;;2.90;99.90;;;;;;6155183;23;20462;-84
2023/01/24 05:11:22;;;;;;;15.32;13.38;;;2.80;99.90;;;;;;6154787;23;20040;-79
2023/01/24 05:13:49;;;;;;;15.02;13.13;;;2.90;99.90;;;;;;6156130;23;20062;-79
2023/01/24 05:16:15;;;;;;;16.95;14.40;;;2.80;99.90;;;;;;6154568;23;20010;-85
2023/01/24 05:18:40;;;;;;;15.07;12.80;;;2.80;99.90;;;;;;6155980;23;20011;-80
2023/01/24 05:21:08;;;;;;;14.38;12.98;;;2.80;99.90;;;;;;6155217;23;20045;-79
2023/01/24 05:23:33;;;;;;;15.45;13.73;;;2.80;99.90;;;;;;6154855;23;20020;-80
2023/01/24 05:26:00;;;;;;;13.73;12.27;;;2.80;99.90;;;;;;6130381;23;20021;-79
2023/01/24 05:28:26;;;;;;;14.65;11.52;;;2.80;99.90;;;;;;6154115;23;20021;-81
2023/01/24 05:30:51;;;;;;;12.20;11.00;;;2.80;99.90;;;;;;6155172;23;20148;-81
2023/01/24 05:33:17;;;;;;;11.18;9.98;;;2.80;99.90;;;;;;6154755;23;20020;-81
2023/01/24 05:35:44;;;;;;;13.80;11.73;;;2.80;99.90;;;;;;6129024;23;20088;-79
2023/01/24 05:38:10;;;;;;;15.38;10.45;;;2.80;99.90;;;;;;6157751;23;20088;-79
2023/01/24 05:40:36;;;;;;;11.30;10.10;;;2.90;99.90;;;;;;6153242;23;20101;-79
2023/01/24 05:43:02;;;;;;;13.55;11.20;;;2.80;99.90;;;;;;6154138;23;20052;-80
2023/01/24 05:45:27;;;;;;;12.43;11.13;;;2.80;99.90;;;;;;6153328;23;20108;-79
2023/01/24 05:47:54;;;;;;;14.68;11.20;;;2.80;99.90;;;;;;6154619;23;20014;-81
2023/01/24 05:50:20;;;;;;;11.63;10.40;;;2.80;99.90;;;;;;6153930;23;20123;-80
2023/01/24 05:52:45;;;;;;;11.93;10.65;;;2.80;99.90;;;;;;6152058;23;20438;-85
2023/01/24 05:55:11;;;;;;;12.95;10.45;;;2.80;99.90;;;;;;6120991;23;20172;-81
2023/01/24 05:57:37;;;;;;;12.95;11.13;;;2.80;99.90;;;;;;6152771;23;20049;-79
2023/01/24 06:00:06;;;;;;;12.23;10.32;;;2.80;99.90;;;;;;6131180;23;20036;-80
2023/01/24 06:02:31;;;;;;;14.23;11.45;;;2.70;99.90;;;;;;6154695;23;20017;-80
2023/01/24 06:04:57;;;;;;;12.75;11.15;;;2.80;99.90;;;;;;6157079;23;20494;-83
2023/01/24 06:07:22;;;;;;;12.52;10.18;;;2.80;99.90;;;;;;6159101;23;20013;-80
2023/01/24 06:09:48;;;;;;;11.55;10.13;;;2.70;99.90;;;;;;6156646;23;20011;-79
2023/01/24 06:12:13;;;;;;;12.13;10.45;;;2.70;99.90;;;;;;6157055;23;20081;-80
2023/01/24 06:14:39;;;;;;;11.68;10.48;;;2.70;99.90;;;;;;6158465;23;20346;-84
2023/01/24 06:17:05;;;;;;;19.88;10.85;;;2.70;99.90;;;;;;6154933;23;20010;-79
2023/01/24 06:19:30;;;;;;;11.95;10.27;;;2.70;99.90;;;;;;6158340;23;20036;-82
2023/01/24 06:22:03;;;;;;;11.50;10.30;;;2.70;99.90;;;;;;6137380;23;20738;-81
2023/01/24 06:24:29;;;;;;;12.23;10.02;;;2.70;99.90;;;;;;6130687;23;20218;-85
2023/01/24 06:26:55;;;;;;;12.10;9.75;;;2.70;99.90;;;;;;6136279;23;20477;-82
2023/01/24 06:29:21;;;;;;;13.45;10.15;;;2.70;99.90;;;;;;6139105;23;20023;-82
2023/01/24 06:32:19;;;;;;;11.45;9.98;;;2.70;99.90;;;;;;6138123;23;20021;-86
2023/01/24 06:35:10;;;;;;;14.98;9.23;;;2.70;99.90;;;;;;6137726;23;20012;-83
2023/01/24 06:37:44;;;;;;;11.13;9.38;;;2.70;99.90;;;;;;6136553;23;20045;-83
2023/01/24 06:40:12;;;;;;;10.80;9.70;;;2.70;99.90;;;;;;6136905;23;20018;-83
2023/01/24 06:42:38;;;;;;;10.68;9.57;;;2.70;99.90;;;;;;6137377;23;20472;-84
2023/01/24 06:45:05;;;;;;;10.13;8.45;;;2.70;99.90;;;;;;6162546;23;20010;-80
2023/01/24 06:47:31;;;;;;;10.70;8.73;;;2.70;99.90;;;;;;6164276;23;20018;-82
2023/01/24 06:49:56;;;;;;;11.55;9.60;;;2.70;99.90;;;;;;6139952;23;20013;-82
2023/01/24 06:52:22;;;;;;;11.15;9.15;;;2.70;99.90;;;;;;6161914;23;20013;-80
2023/01/24 06:54:47;;;;;;;11.13;9.20;;;2.70;99.90;;;;;;6159693;23;20010;-81
2023/01/24 06:57:13;;;;;;;11.27;9.30;;;2.70;99.90;;;;;;6137441;23;20013;-82
2023/01/24 06:59:38;;;;;;;11.07;9.35;;;2.70;99.90;;;;;;6163741;23;20045;-81
2023/01/24 07:02:04;;;;;;;13.25;10.30;;;2.60;99.90;;;;;;6160627;23;20037;-79
2023/01/24 07:04:30;;;;;;;12.80;10.25;;;2.70;99.90;;;;;;6159521;23;20040;-81
2023/01/24 07:06:55;;;;;;;10.98;9.82;;;2.70;99.90;;;;;;6158935;23;20354;-83
2023/01/24 07:09:22;;;;;;;13.75;10.40;;;2.60;99.90;;;;;;6099846;23;20072;-84
2023/01/24 07:11:52;;;;;;;11.63;10.00;;;2.60;99.90;;;;;;6131702;23;20013;-83
2023/01/24 07:14:18;;;;;;;11.60;9.77;;;2.70;99.90;;;;;;6157692;23;20040;-81
2023/01/24 07:16:43;;;;;;;13.55;10.52;;;2.60;99.90;;;;;;6133224;23;20478;-80
2023/01/24 07:19:15;;;;;;;10.93;9.50;;;2.60;99.90;;;;;;6157975;23;20017;-80
2023/01/24 07:21:40;;;;;;;11.30;9.85;;;2.60;99.90;;;;;;6132853;23;20454;-80
2023/01/24 07:24:13;;;;;;;11.27;9.95;;;2.70;99.90;;;;;;6134569;23;20041;-81
2023/01/24 07:26:39;;;;;;;11.02;9.52;;;2.60;99.90;;;;;;6159691;23;20025;-80
2023/01/24 07:29:05;;;;;;;13.18;10.20;;;2.60;99.90;;;;;;6159621;23;20020;-80
2023/01/24 07:31:31;;;;;;;12.00;9.57;;;2.60;99.90;;;;;;6158899;23;20019;-81
2023/01/24 07:33:56;;;;;;;14.23;10.55;;;2.60;99.90;;;;;;6158943;23;20009;-83
2023/01/24 07:36:22;;;;;;;14.48;11.32;;;2.60;99.90;;;;;;6156253;23;20013;-84
2023/01/24 07:38:47;;;;;;;12.00;10.43;;;2.60;99.90;;;;;;6126960;23;20013;-84
2023/01/24 07:41:13;;;;;;;11.32;10.10;;;2.60;99.90;;;;;;6152767;23;20017;-80
2023/01/24 07:43:39;;;;;;;12.13;10.20;;;2.60;99.90;;;;;;6153966;23;20051;-82
2023/01/24 07:46:05;;;;;;;12.38;10.57;;;2.60;99.90;;;;;;6154088;23;20017;-83
2023/01/24 07:48:31;;;;;;;12.70;10.55;;;2.60;99.90;;;;;;6155773;23;20080;-80
2023/01/24 07:51:00;;;;;;;11.98;10.00;;;2.50;99.90;;;;;;6153555;23;20387;-82
2023/01/24 07:53:26;;;;;;;11.27;10.10;;;2.60;99.90;;;;;;6129561;23;20010;-82
2023/01/24 07:55:52;;;;;;;10.73;9.63;;;2.60;99.90;;;;;;6129367;23;20020;-81
2023/01/24 07:58:18;;;;;;;12.23;10.00;;;2.60;99.90;;;;;;6129709;23;20009;-82
2023/01/24 08:00:44;;;;;;;16.70;10.23;;;2.60;99.90;;;;;;6130697;23;20570;-83
2023/01/24 08:03:10;;;;;;;11.90;10.23;;;2.50;99.90;;;;;;6154783;23;20402;-82
2023/01/24 08:05:39;;;;;;;12.13;10.45;;;2.50;99.90;;;;;;6154184;23;20045;-85
2023/01/24 08:08:04;;;;;;;11.68;9.88;;;2.50;99.90;;;;;;6152804;23;20017;-80
2023/01/24 08:10:30;;;;;;;12.15;9.85;;;2.50;99.90;;;;;;6151356;23;20044;-85
2023/01/24 08:16:44;;;;;;;14.20;10.25;;;2.60;99.90;;;;;;6157930;23;20070;-84
2023/01/24 08:19:10;;;;;;;12.32;10.82;;;2.80;99.90;;;;;;6131372;23;20017;-83
2023/01/24 08:21:35;;;;;;;12.90;10.20;;;2.60;99.90;;;;;;6156312;23;20072;-82
2023/01/24 08:24:02;;;;;;;12.38;10.43;;;2.60;99.90;;;;;;6131720;23;20013;-80
2023/01/24 08:26:28;;;;;;;12.82;10.18;;;2.50;99.90;;;;;;6157074;23;20656;-80
2023/01/24 08:28:53;;;;;;;12.88;10.38;;;2.50;99.90;;;;;;6156690;23;20018;-80
2023/01/24 08:31:19;;;;;;;12.93;10.60;;;2.50;99.90;;;;;;6155199;23;20018;-82
2023/01/24 08:33:44;;;;;;;13.25;10.65;;;2.50;99.90;;;;;;6156127;23;20036;-82
2023/01/24 08:36:10;;;;;;;10.93;9.48;;;2.50;99.90;;;;;;6156202;23;20013;-81
2023/01/24 08:38:36;;;;;;;14.32;10.35;;;2.50;99.90;;;;;;6131513;23;20013;-80
2023/01/24 08:41:03;;;;;;;12.25;10.27;;;2.50;99.90;;;;;;6155152;23;20017;-80
2023/01/24 08:43:29;;;;;;;11.55;10.35;;;2.50;99.90;;;;;;6155826;23;20014;-83
2023/01/24 08:45:55;;;;;;;12.02;10.23;;;2.50;99.90;;;;;;6129800;23;20041;-85
2023/01/24 08:48:21;;;;;;;15.40;11.57;;;2.50;99.90;;;;;;6132474;23;20062;-81
2023/01/24 08:50:46;;;;;;;11.20;10.07;;;2.60;99.90;;;;;;6130348;23;20354;-80
2023/01/24 08:53:12;;;;;;;14.25;11.10;;;2.50;99.90;;;;;;6157326;23;20037;-80
2023/01/24 08:55:37;;;;;;;16.38;10.23;;;2.60;99.90;;;;;;6131099;23;20741;-81
2023/01/24 08:58:03;;;;;;;12.27;10.73;;;2.60;99.90;;;;;;6157459;23;20016;-80
2023/01/24 09:00:30;;;;;;;12.40;10.25;;;2.60;99.90;;;;;;6131257;23;20144;-80
2023/01/24 09:03:00;;;;;;;19.52;10.75;;;2.60;99.90;;;;;;6131020;23;20014;-82
2023/01/24 09:05:26;;;;;;;17.00;11.88;;;2.60;99.90;;;;;;6155608;23;20072;-83
2023/01/24 09:07:52;;;;;;;12.82;11.40;;;2.50;99.90;;;;;;6155661;23;20037;-80
2023/01/24 09:10:18;;;;;;;10.77;9.57;;;2.50;99.90;;;;;;6155350;23;20010;-83
2023/01/24 09:12:43;;;;;;;11.80;10.57;;;2.50;99.90;;;;;;6155033;23;20052;-80
2023/01/24 09:15:09;;;;;;;11.30;10.20;;;2.50;99.90;;;;;;6130018;23;20017;-79
2023/01/24 09:17:37;;;;;;;13.07;10.63;;;2.60;99.90;;;;;;6127567;23;20538;-80
2023/01/24 09:20:04;;;;;;;12.40;10.80;;;2.50;99.90;;;;;;6129010;23;20025;-82
2023/01/24 09:22:30;;;;;;;12.65;9.98;;;2.50;99.90;;;;;;6155932;23;20084;-79
2023/01/24 09:24:56;;;;;;;11.57;9.65;;;2.60;99.90;;;;;;6153819;23;20013;-80
2023/01/24 09:27:21;;;;;;;12.02;10.63;;;2.60;99.90;;;;;;6129216;23;20024;-80
2023/01/24 09:29:47;;;;;;;10.57;9.48;;;2.50;99.90;;;;;;6153720;23;20073;-80
2023/01/24 09:32:13;;;;;;;13.02;10.98;;;2.60;99.90;;;;;;6129412;23;20045;-83
2023/01/24 09:34:46;;;;;;;12.45;10.30;;;2.60;99.90;;;;;;6128601;23;20087;-82
2023/01/24 09:37:19;;;;;;;11.68;9.50;;;2.60;99.90;;;;;;6156965;23;20021;-80
2023/01/24 09:39:44;;;;;;;13.95;9.93;;;3.00;99.90;;;;;;6131876;23;20488;-80
2023/01/24 09:42:53;;;;;;;13.13;10.70;;;2.50;99.90;;;;;;6156695;23;20026;-80
2023/01/24 09:45:30;;;;;;;13.95;11.10;;;2.50;99.90;;;;;;6022560;23;20078;-82
2023/01/24 09:48:02;;;;;;;14.55;10.95;;;2.60;99.90;;;;;;6144381;23;20057;-80
2023/01/24 09:50:46;;;;;;;11.27;10.00;;;2.60;99.90;;;;;;6158848;23;20044;-80
2023/01/24 09:53:45;;;;;;;12.77;10.27;;;2.60;99.90;;;;;;6160535;23;20408;-80
2023/01/24 09:56:33;;;;;;;12.15;9.80;;;2.60;99.90;;;;;;6118503;23;20017;-80
2023/01/24 09:59:38;;;;;;;12.55;10.48;;;2.70;99.90;;;;;;6158684;23;20013;-80
2023/01/24 10:02:17;;;;;;;14.48;11.45;;;2.60;99.90;;;;;;6160096;23;20017;-83
2023/01/24 10:04:44;;;;;;;11.90;10.57;;;2.60;99.90;;;;;;6161029;23;20013;-80
2023/01/24 10:07:29;;;;;;;13.18;10.30;;;2.70;99.90;;;;;;6160623;23;20028;-80
2023/01/24 10:10:23;;;;;;;15.07;11.23;;;2.60;99.90;;;;;;6160539;23;20014;-80
2023/01/24 10:13:13;;;;;;;12.25;10.70;;;2.70;99.90;;;;;;6159844;23;20355;-82
2023/01/24 10:16:12;;;;;;;12.93;11.30;;;2.70;99.90;;;;;;6161110;23;20022;-80
2023/01/24 10:18:37;;;;;;;11.52;10.30;;;2.70;99.90;;;;;;6135657;23;20014;-80
2023/01/24 10:21:12;;;;;;;12.18;10.40;;;2.80;99.90;;;;;;6135656;23;20014;-80
2023/01/24 10:23:42;;;;;;;14.00;9.87;;;2.80;99.90;;;;;;6159382;23;20025;-80
2023/01/24 10:26:21;;;;;;;13.45;9.77;;;2.70;99.90;;;;;;6159886;23;20020;-80
2023/01/24 10:28:51;;;;;;;12.07;10.32;;;2.70;99.90;;;;;;6135391;23;20014;-81
2023/01/24 10:31:26;;;;;;;11.90;10.25;;;2.80;99.90;;;;;;6133851;23;20481;-80
2023/01/24 10:34:15;;;;;;;12.88;11.07;;;2.70;99.90;;;;;;6135026;23;20014;-80
2023/01/24 10:36:53;;;;;;;12.43;11.18;;;2.70;99.90;;;;;;6160513;23;20006;-80
2023/01/24 10:39:19;;;;;;;13.40;10.65;;;2.70;99.90;;;;;;6160962;23;20016;-82
2023/01/24 10:41:46;;;;;;;12.23;10.90;;;2.70;99.90;;;;;;6136126;23;20014;-80
2023/01/24 10:44:20;;;;;;;14.40;11.93;;;2.70;99.90;;;;;;6135660;23;20044;-80
2023/01/24 10:46:53;;;;;;;12.70;10.60;;;2.70;99.90;;;;;;6158007;23;20029;-82
2023/01/24 10:49:47;;;;;;;13.32;10.85;;;2.80;99.90;;;;;;6134688;23;20036;-80
2023/01/24 10:52:16;;;;;;;11.95;10.68;;;2.80;99.90;;;;;;6131513;23;20041;-81
2023/01/24 10:54:44;;;;;;;15.00;11.85;;;2.80;99.90;;;;;;6155710;23;20017;-83
2023/01/24 10:57:44;;;;;;;12.15;9.40;;;2.80;99.90;;;;;;6157576;23;20024;-83
2023/01/24 11:00:19;;;;;;;16.00;11.05;;;2.80;99.90;;;;;;6094110;23;20021;-80
2023/01/24 11:02:50;;;;;;;11.35;9.95;;;2.70;99.90;;;;;;6130856;23;20017;-81
2023/01/24 11:05:18;;;;;;;12.77;11.30;;;2.70;99.90;;;;;;6155774;23;20016;-80
2023/01/24 11:07:54;;;;;;;12.13;10.90;;;2.70;99.90;;;;;;6132966;23;20020;-80
2023/01/24 11:10:22;;;;;;;;;;;2.70;99.90;;;;;;6132930;23;20076;-80
2023/01/24 11:12:57;;;;;;;14.13;10.60;;;2.70;99.90;;;;;;6158412;23;19920;-82
2023/01/24 11:15:33;;;;;;;11.50;10.40;;;2.60;99.90;;;;;;6157782;23;20013;-83
2023/01/24 11:18:06;;;;;;;11.93;10.35;;;2.70;99.90;;;;;;6133685;23;20156;-82
2023/01/24 11:20:34;;;;;;;13.30;11.07;;;2.60;99.90;;;;;;6133578;23;20017;-80
2023/01/24 11:23:03;;;;;;;13.13;10.93;;;2.60;99.90;;;;;;6158634;23;20024;-80
2023/01/24 11:25:28;;;;;;;12.88;10.85;;;2.70;99.90;;;;;;6157944;23;20085;-80
2023/01/24 11:27:54;;;;;;;13.18;11.35;;;2.60;99.90;;;;;;6132124;23;20013;-81
2023/01/24 11:30:21;;;;;;;12.98;11.15;;;2.60;99.90;;;;;;6157982;23;20028;-85
2023/01/24 11:33:00;;;;;;;14.20;10.80;;;2.60;99.90;;;;;;6158529;23;20005;-80
2023/01/24 11:35:53;;;;;;;11.63;10.32;;;2.70;99.90;;;;;;6133260;23;20439;-80
2023/01/24 11:38:19;;;;;;;11.38;10.05;;;2.70;99.90;;;;;;6146379;23;20018;-81
2023/01/24 11:41:09;;;;;;;13.77;11.25;;;2.70;99.90;;;;;;6159999;23;20437;-82
2023/01/24 11:43:43;;;;;;;13.15;11.75;;;2.70;99.90;;;;;;6160423;23;20092;-81
2023/01/24 11:46:33;;;;;;;13.32;11.93;;;2.70;99.90;;;;;;6160941;23;20048;-80
2023/01/24 11:49:31;;;;;;;11.55;9.88;;;2.80;99.90;;;;;;6134956;23;20099;-81
2023/01/24 11:52:14;;;;;;;12.90;10.55;;;2.70;99.90;;;;;;6109265;23;20085;-85
2023/01/24 11:55:23;;;;;;;11.50;10.30;;;2.70;99.90;;;;;;6126828;23;20057;-88
2023/01/24 11:58:10;;;;;;;11.52;10.25;;;2.70;99.90;;;;;;6126741;23;20024;-85
2023/01/24 12:00:53;;;;;;;10.63;9.52;;;2.80;99.90;;;;;;6130033;23;20013;-85
2023/01/24 12:03:47;;;;;;;11.40;10.25;;;2.80;99.90;;;;;;6157745;23;20020;-88
2023/01/24 12:06:32;;;;;;;11.23;10.02;;;2.80;99.90;;;;;;6131580;23;20230;-84
2023/01/24 12:09:19;;;;;;;13.27;9.77;;;2.80;99.90;;;;;;6133702;23;20532;-89
2023/01/24 12:12:08;;;;;;;12.48;10.40;;;2.70;99.90;;;;;;6133139;23;20060;-83
2023/01/24 12:14:58;;;;;;;14.63;10.68;;;2.80;99.90;;;;;;6132621;23;20057;-83
2023/01/24 12:18:00;;;;;;;12.85;10.68;;;2.70;99.90;;;;;;6134199;23;20045;-84
2023/01/24 12:20:51;;;;;;;11.55;10.35;;;2.70;99.90;;;;;;6132774;23;20019;-83
2023/01/24 12:23:27;;;;;;;12.23;11.02;;;2.80;99.90;;;;;;6133643;23;20021;-81
2023/01/24 12:25:55;;;;;;;11.30;10.10;;;2.70;99.90;;;;;;6131656;23;20017;-81
2023/01/24 12:28:31;;;;;;;13.18;11.65;;;2.60;99.90;;;;;;6157030;23;20017;-84
2023/01/24 12:30:59;;;;;;;12.07;10.57;;;2.60;99.90;;;;;;6157104;23;20010;-82
2023/01/24 12:33:32;;;;;;;12.70;10.85;;;2.60;99.90;;;;;;6131729;23;20450;-83
2023/01/24 12:36:03;;;;;;;12.73;11.32;;;2.60;99.90;;;;;;6155638;23;20016;-80
2023/01/24 12:38:41;;;;;;;12.15;10.90;;;2.60;99.90;;;;;;6128252;23;20017;-80
2023/01/24 12:41:31;;;;;;;13.90;11.35;;;2.70;99.90;;;;;;6155753;23;20017;-81
2023/01/24 12:44:09;;;;;;;14.50;11.57;;;2.60;99.90;;;;;;6130844;23;20065;-82
2023/01/24 12:46:39;;;;;;;12.18;10.98;;;2.60;99.90;;;;;;6131710;23;20113;-83
2023/01/24 12:49:22;;;;;;;12.70;11.38;;;2.60;99.90;;;;;;6130174;23;20017;-81
2023/01/24 12:52:08;;;;;;;15.25;11.57;;;2.60;99.90;;;;;;6130519;23;20021;-83
2023/01/24 12:54:53;;;;;;;12.80;11.60;;;2.60;99.90;;;;;;6128358;23;20084;-81
2023/01/24 12:57:27;;;;;;;12.52;11.23;;;2.60;99.90;;;;;;6152970;23;20029;-81
2023/01/24 12:59:53;;;;;;;12.05;10.65;;;2.50;99.90;;;;;;6130600;23;20009;-82
2023/01/24 13:02:44;;;;;;;11.85;10.40;;;2.60;99.90;;;;;;6155608;23;20033;-82
2023/01/24 13:05:28;;;;;;;13.50;11.40;;;2.60;99.90;;;;;;6158273;23;20021;-82
2023/01/24 13:08:11;;;;;;;14.35;12.75;;;2.60;99.90;;;;;;6131535;23;20025;-81
2023/01/24 13:10:58;;;;;;;12.50;10.93;;;2.60;99.90;;;;;;6132576;23;20019;-83
2023/01/24 13:13:33;;;;;;;13.18;11.77;;;2.60;99.90;;;;;;6154414;23;20021;-81
2023/01/24 13:16:21;;;;;;;16.45;12.48;;;2.60;99.90;;;;;;6130087;23;20367;-82
2023/01/24 13:19:15;;;;;;;12.30;10.75;;;2.50;99.90;;;;;;6134929;23;20076;-81
2023/01/24 13:21:53;;;;;;;12.18;10.88;;;2.50;99.90;;;;;;6133710;23;20021;-80
2023/01/24 13:24:31;;;;;;;14.07;11.93;;;2.40;99.90;;;;;;6134088;23;20021;-84
2023/01/24 13:27:21;;;;;;;12.65;11.35;;;2.50;99.90;;;;;;6154813;23;20045;-85
2023/01/24 13:30:15;;;;;;;12.00;10.70;;;2.50;99.90;;;;;;6156944;23;20052;-87
2023/01/24 13:32:42;;;;;;;14.05;12.55;;;2.50;99.90;;;;;;6156989;23;20113;-82
2023/01/24 13:35:22;;;;;;;14.50;11.63;;;2.50;99.90;;;;;;6156420;23;20529;-81